Time;durP1;ratioP1;P1;durP2;ratioP2;P2;SDS_P1;SDS_P2;PMS_P1;PMS_P2;Temp;Humidity;BMP_temperature;BMP_pressure;BME280_temperature;BME280_humidity;BME280_pressure;Samples;Min_cycle;Max_cycle;Signal;HPM_P1;HPM_P2
2021/07/07 00:00:23;;;;;;;3.07;2.73;;;16.50;99.90;;;;;;5117145;28;20406;-71
2021/07/07 00:02:49;;;;;;;4.37;3.97;;;16.30;99.90;;;;;;5117061;28;20963;-67
2021/07/07 00:05:16;;;;;;;5.20;2.90;;;16.30;99.90;;;;;;5117078;28;20437;-70
2021/07/07 00:07:43;;;;;;;2.90;2.50;;;16.20;99.90;;;;;;5117050;28;20452;-68
2021/07/07 00:10:13;;;;;;;2.33;2.10;;;16.30;99.90;;;;;;5117159;28;20812;-69
2021/07/07 00:12:39;;;;;;;2.30;2.10;;;16.30;99.90;;;;;;5117428;28;20752;-68
2021/07/07 00:15:12;;;;;;;4.07;2.60;;;16.50;99.90;;;;;;5116812;28;20479;-70
2021/07/07 00:17:39;;;;;;;2.33;2.13;;;16.50;99.90;;;;;;5116826;28;20809;-68
2021/07/07 00:20:07;;;;;;;2.33;2.13;;;16.60;99.90;;;;;;5117004;28;20429;-69
2021/07/07 00:22:32;;;;;;;2.23;2.03;;;16.60;99.90;;;;;;5116820;28;20430;-70
2021/07/07 00:24:58;;;;;;;2.57;2.37;;;16.70;99.90;;;;;;5116629;28;20937;-67
2021/07/07 00:27:24;;;;;;;3.30;3.00;;;16.70;99.90;;;;;;5116471;28;20187;-69
2021/07/07 00:29:51;;;;;;;2.77;2.57;;;16.70;99.90;;;;;;5116680;28;20179;-68
2021/07/07 00:32:18;;;;;;;3.70;3.17;;;16.80;99.90;;;;;;5116668;28;20402;-67
2021/07/07 00:34:44;;;;;;;3.67;3.37;;;16.80;99.90;;;;;;5116700;28;20481;-67
2021/07/07 00:37:11;;;;;;;3.23;2.63;;;16.80;99.90;;;;;;5116280;28;20402;-66
2021/07/07 00:39:36;;;;;;;2.60;2.40;;;16.80;99.90;;;;;;5116508;28;20398;-70
2021/07/07 00:42:03;;;;;;;2.73;2.57;;;16.80;99.90;;;;;;5116587;28;20408;-68
2021/07/07 00:44:28;;;;;;;2.20;2.10;;;16.80;99.90;;;;;;5116240;28;20214;-69
2021/07/07 00:46:54;;;;;;;3.47;3.10;;;16.80;99.90;;;;;;5116076;28;20910;-70
2021/07/07 00:49:19;;;;;;;2.33;2.20;;;16.80;99.90;;;;;;5116483;28;20652;-69
2021/07/07 00:51:45;;;;;;;1.97;1.87;;;16.90;99.90;;;;;;5116447;28;20172;-70
2021/07/07 00:54:14;;;;;;;3.40;2.13;;;16.90;99.90;;;;;;5116173;27;20229;-70
2021/07/07 00:56:42;;;;;;;2.73;2.53;;;17.00;99.90;;;;;;5115898;28;20165;-68
2021/07/07 00:59:08;;;;;;;4.90;3.03;;;17.00;99.90;;;;;;5116068;28;20411;-70
2021/07/07 01:01:35;;;;;;;2.93;2.40;;;17.00;99.90;;;;;;5116044;28;20405;-69
2021/07/07 01:04:00;;;;;;;2.33;2.13;;;17.00;99.90;;;;;;5115859;28;20931;-70
2021/07/07 01:06:26;;;;;;;5.07;2.77;;;16.90;99.90;;;;;;5114542;28;20494;-69
2021/07/07 01:08:52;;;;;;;2.50;2.30;;;16.80;99.90;;;;;;5115778;28;20594;-69
2021/07/07 01:11:17;;;;;;;2.50;2.10;;;16.60;99.90;;;;;;5115790;28;20168;-69
2021/07/07 01:13:43;;;;;;;2.20;1.60;;;16.40;99.90;;;;;;5115739;28;20204;-69
2021/07/07 01:16:09;;;;;;;2.70;1.80;;;16.40;99.90;;;;;;5115679;28;20421;-68
2021/07/07 01:18:35;;;;;;;2.40;1.93;;;16.30;99.90;;;;;;5115754;27;20172;-68
2021/07/07 01:21:01;;;;;;;1.60;1.50;;;16.20;99.90;;;;;;5115836;28;20174;-69
2021/07/07 01:23:27;;;;;;;2.50;1.63;;;16.30;99.90;;;;;;5115508;28;20436;-71
2021/07/07 01:25:53;;;;;;;2.20;2.10;;;16.30;99.90;;;;;;5115347;28;20405;-69
2021/07/07 01:28:20;;;;;;;2.93;2.73;;;16.40;99.90;;;;;;5115712;28;20413;-69
2021/07/07 01:30:45;;;;;;;2.47;2.27;;;16.50;99.90;;;;;;5115619;28;20409;-68
2021/07/07 01:33:11;;;;;;;2.60;2.50;;;16.70;99.90;;;;;;5115313;28;20962;-69
2021/07/07 01:35:37;;;;;;;3.17;2.43;;;16.80;99.90;;;;;;5115334;28;20195;-69
2021/07/07 01:38:03;;;;;;;1.40;1.40;;;16.70;99.90;;;;;;5115284;28;20167;-70
2021/07/07 01:40:31;;;;;;;1.83;1.73;;;16.50;99.90;;;;;;5115282;28;20202;-71
2021/07/07 01:42:57;;;;;;;2.40;2.20;;;16.40;99.90;;;;;;5113790;28;20441;-69
2021/07/07 01:45:24;;;;;;;3.30;2.80;;;16.40;99.90;;;;;;5115028;28;20429;-70
2021/07/07 01:47:51;;;;;;;2.80;2.67;;;16.50;99.90;;;;;;5114923;28;20463;-70
2021/07/07 01:50:18;;;;;;;2.30;2.20;;;16.70;99.90;;;;;;5115195;28;20750;-68
2021/07/07 01:52:44;;;;;;;1.73;1.63;;;16.80;99.90;;;;;;5114969;28;20808;-71
2021/07/07 01:55:12;;;;;;;1.80;1.70;;;16.90;99.90;;;;;;5115246;28;20460;-67
2021/07/07 01:57:45;;;;;;;2.17;2.07;;;16.90;99.90;;;;;;5114951;28;20405;-69
2021/07/07 02:00:17;;;;;;;2.17;2.07;;;17.00;99.90;;;;;;5115070;28;20401;-68
2021/07/07 02:02:44;;;;;;;4.00;3.80;;;17.00;99.90;;;;;;5114850;28;20950;-67
2021/07/07 02:05:10;;;;;;;3.23;2.93;;;17.00;99.90;;;;;;5114771;28;20402;-70
2021/07/07 02:07:36;;;;;;;2.10;1.93;;;17.00;99.90;;;;;;5114637;28;20421;-69
2021/07/07 02:10:05;;;;;;;2.07;1.97;;;17.00;99.90;;;;;;5114732;28;20415;-71
2021/07/07 02:12:31;;;;;;;1.67;1.57;;;16.80;99.90;;;;;;5114542;28;20171;-68
2021/07/07 02:14:57;;;;;;;2.03;1.93;;;16.80;99.90;;;;;;5114444;27;20449;-68
2021/07/07 02:17:22;;;;;;;2.23;2.13;;;16.80;99.90;;;;;;5114035;28;20164;-70
2021/07/07 02:19:48;;;;;;;1.60;1.50;;;16.70;99.90;;;;;;5113193;28;20244;-69
2021/07/07 02:22:14;;;;;;;1.80;1.70;;;16.60;99.90;;;;;;5114636;28;20180;-68
2021/07/07 02:24:39;;;;;;;2.30;2.20;;;16.60;99.90;;;;;;5114291;28;20188;-69
2021/07/07 02:27:05;;;;;;;2.47;2.27;;;16.50;99.90;;;;;;5114293;28;20256;-68
2021/07/07 02:29:31;;;;;;;1.90;1.80;;;16.50;99.90;;;;;;5114248;28;20164;-69
2021/07/07 02:31:56;;;;;;;2.60;2.40;;;16.60;99.90;;;;;;5114377;28;20178;-69
2021/07/07 02:34:22;;;;;;;1.90;1.80;;;16.60;99.90;;;;;;5114089;28;20208;-70
2021/07/07 02:36:48;;;;;;;1.97;1.83;;;16.50;99.90;;;;;;5114031;28;20167;-70
2021/07/07 02:39:13;;;;;;;2.00;1.90;;;16.50;99.90;;;;;;5114204;28;20660;-70
2021/07/07 02:41:39;;;;;;;1.90;1.80;;;16.30;99.90;;;;;;5114165;28;20405;-68
2021/07/07 02:44:05;;;;;;;1.93;1.83;;;16.30;99.90;;;;;;5114026;28;20222;-68
2021/07/07 02:46:31;;;;;;;3.17;2.97;;;16.40;99.90;;;;;;5113698;28;20184;-70
2021/07/07 02:48:56;;;;;;;2.90;2.80;;;16.50;99.90;;;;;;5113954;28;20908;-70
2021/07/07 02:51:22;;;;;;;2.70;2.50;;;16.60;99.90;;;;;;5113962;28;20710;-68
2021/07/07 02:53:48;;;;;;;4.50;2.73;;;16.70;99.90;;;;;;5113779;27;20199;-68
2021/07/07 02:56:13;;;;;;;2.90;2.60;;;16.80;99.90;;;;;;5113762;28;20168;-67
2021/07/07 02:58:39;;;;;;;2.63;2.53;;;16.80;99.90;;;;;;5114125;28;20254;-71
2021/07/07 03:01:04;;;;;;;2.10;2.00;;;16.90;99.90;;;;;;5113962;28;20177;-71
2021/07/07 03:03:30;;;;;;;2.67;2.47;;;16.90;99.90;;;;;;5113969;28;20226;-70
2021/07/07 03:06:00;;;;;;;2.20;2.10;;;16.90;99.90;;;;;;5113989;28;20684;-69
2021/07/07 03:08:28;;;;;;;2.60;2.40;;;16.90;99.90;;;;;;5113780;28;20254;-69
2021/07/07 03:10:55;;;;;;;2.10;2.00;;;16.90;99.90;;;;;;5113934;28;20429;-68
2021/07/07 03:13:22;;;;;;;1.97;1.87;;;17.00;99.90;;;;;;5113589;28;20460;-67
2021/07/07 03:15:49;;;;;;;2.10;1.90;;;17.00;99.90;;;;;;5113398;28;20421;-71
2021/07/07 03:18:15;;;;;;;2.17;1.73;;;16.90;99.90;;;;;;5113636;28;20437;-70
2021/07/07 03:20:44;;;;;;;1.77;1.67;;;17.00;99.90;;;;;;5113904;28;20880;-69
2021/07/07 03:23:11;;;;;;;1.57;1.47;;;17.00;99.90;;;;;;5113528;28;20843;-69
2021/07/07 03:25:37;;;;;;;1.90;1.50;;;17.00;99.90;;;;;;5113609;28;20412;-71
2021/07/07 03:28:04;;;;;;;2.90;2.70;;;16.90;99.90;;;;;;5113629;28;20416;-68
2021/07/07 03:30:30;;;;;;;2.07;1.97;;;16.90;99.90;;;;;;5115976;28;20503;-68
2021/07/07 03:32:58;;;;;;;2.73;2.53;;;16.90;99.90;;;;;;5117763;28;20478;-68
2021/07/07 03:35:25;;;;;;;2.10;2.00;;;16.90;99.90;;;;;;5117636;28;20440;-67
2021/07/07 03:37:51;;;;;;;2.43;2.23;;;16.90;99.90;;;;;;5117571;28;20431;-67
2021/07/07 03:40:17;;;;;;;1.80;1.70;;;17.00;99.90;;;;;;5117697;28;20783;-69
2021/07/07 03:42:43;;;;;;;1.80;1.70;;;17.00;99.90;;;;;;5117467;28;20798;-71
2021/07/07 03:45:12;;;;;;;1.67;1.57;;;17.00;99.90;;;;;;5117319;27;20462;-69
2021/07/07 03:47:38;;;;;;;1.90;1.80;;;17.00;99.90;;;;;;5117284;28;20888;-69
2021/07/07 03:50:05;;;;;;;2.30;2.13;;;16.90;99.90;;;;;;5117447;28;20497;-70
2021/07/07 03:52:31;;;;;;;2.00;1.90;;;16.90;99.90;;;;;;5117451;28;20416;-68
2021/07/07 03:54:57;;;;;;;1.80;1.33;;;16.80;99.90;;;;;;5117352;27;20453;-70
2021/07/07 03:57:22;;;;;;;2.20;2.10;;;16.70;99.90;;;;;;5117007;28;20409;-70
2021/07/07 03:59:48;;;;;;;1.20;1.20;;;16.80;99.90;;;;;;5117182;28;20648;-68
2021/07/07 04:02:14;;;;;;;1.43;1.33;;;16.70;99.90;;;;;;5117175;28;20168;-70
2021/07/07 04:04:40;;;;;;;2.03;1.60;;;16.50;99.90;;;;;;5117421;28;20199;-69
2021/07/07 04:07:06;;;;;;;1.40;1.30;;;16.40;99.90;;;;;;5116979;28;20168;-70
2021/07/07 04:09:32;;;;;;;2.33;1.60;;;16.30;99.90;;;;;;5117150;28;20419;-70
2021/07/07 04:11:59;;;;;;;1.67;1.57;;;16.30;99.90;;;;;;5117110;28;20902;-70
2021/07/07 04:14:25;;;;;;;1.07;1.07;;;16.30;99.90;;;;;;5115493;28;20222;-69
2021/07/07 04:16:52;;;;;;;1.63;1.53;;;16.20;99.90;;;;;;5116731;28;20481;-67
2021/07/07 04:19:18;;;;;;;1.63;1.30;;;16.20;99.90;;;;;;5116877;28;20401;-69
2021/07/07 04:21:44;;;;;;;1.10;1.00;;;16.10;99.90;;;;;;5116929;28;20762;-70
2021/07/07 04:24:10;;;;;;;1.33;1.33;;;16.20;99.90;;;;;;5116686;27;20428;-70
2021/07/07 04:26:36;;;;;;;1.30;1.20;;;16.30;99.90;;;;;;5116553;28;20405;-68
2021/07/07 04:29:02;;;;;;;1.00;1.00;;;16.30;99.90;;;;;;5117059;28;20821;-69
2021/07/07 04:31:28;;;;;;;1.13;1.03;;;16.20;99.90;;;;;;5116795;28;20398;-68
2021/07/07 04:33:54;;;;;;;1.30;1.20;;;16.10;99.90;;;;;;5116490;28;20457;-69
2021/07/07 04:36:19;;;;;;;2.77;1.13;;;16.00;99.90;;;;;;5116367;28;20443;-68
2021/07/07 04:38:45;;;;;;;1.37;1.27;;;15.90;99.90;;;;;;5116690;28;20162;-69
2021/07/07 04:41:11;;;;;;;1.30;1.20;;;16.00;99.90;;;;;;5116289;28;20189;-70
2021/07/07 04:43:36;;;;;;;1.50;1.40;;;16.10;99.90;;;;;;5116559;28;20249;-71
2021/07/07 04:46:02;;;;;;;1.70;1.47;;;16.10;99.90;;;;;;5116048;28;20184;-70
2021/07/07 04:48:28;;;;;;;1.70;1.60;;;16.10;99.90;;;;;;5116616;28;20176;-70
2021/07/07 04:50:54;;;;;;;1.33;1.30;;;15.90;99.90;;;;;;5116395;28;20166;-69
2021/07/07 04:53:20;;;;;;;1.67;1.57;;;15.90;99.90;;;;;;5116427;28;20224;-68
2021/07/07 04:55:46;;;;;;;1.57;1.47;;;15.90;99.90;;;;;;5115888;28;20400;-69
2021/07/07 04:58:11;;;;;;;1.73;1.63;;;16.00;99.90;;;;;;5116360;28;20262;-69
2021/07/07 05:00:37;;;;;;;2.10;1.40;;;16.00;99.90;;;;;;5116081;28;20533;-69
2021/07/07 05:03:03;;;;;;;1.63;1.53;;;16.00;99.90;;;;;;5116094;28;20451;-71
2021/07/07 05:05:28;;;;;;;1.37;1.27;;;16.10;99.90;;;;;;5115937;28;20220;-68
2021/07/07 05:07:54;;;;;;;4.23;1.90;;;16.10;99.90;;;;;;5115876;28;20206;-70
2021/07/07 05:10:20;;;;;;;1.70;1.60;;;16.20;99.90;;;;;;5115843;28;20625;-69
2021/07/07 05:12:47;;;;;;;1.43;1.33;;;16.20;99.90;;;;;;5115707;28;20180;-69
2021/07/07 05:15:14;;;;;;;2.10;1.20;;;16.10;99.90;;;;;;5115964;28;20524;-67
2021/07/07 05:17:40;;;;;;;1.33;1.23;;;16.00;99.90;;;;;;5115647;28;20482;-69
2021/07/07 05:20:07;;;;;;;1.30;1.20;;;16.00;99.90;;;;;;5115676;28;20476;-71
2021/07/07 05:22:32;;;;;;;2.00;1.90;;;16.00;99.90;;;;;;5115762;28;20389;-68
2021/07/07 05:24:58;;;;;;;1.47;1.47;;;16.10;99.90;;;;;;5115542;28;20478;-68
2021/07/07 05:27:24;;;;;;;1.73;1.63;;;16.20;99.90;;;;;;5115362;28;20172;-68
2021/07/07 05:29:50;;;;;;;1.70;1.60;;;16.30;99.90;;;;;;5115604;28;20174;-67
2021/07/07 05:32:21;;;;;;;1.60;1.50;;;16.30;99.90;;;;;;5115527;28;20164;-68
2021/07/07 05:34:48;;;;;;;1.27;1.20;;;16.40;99.90;;;;;;5115390;28;20571;-68
2021/07/07 05:37:15;;;;;;;1.67;1.57;;;16.50;99.90;;;;;;5115231;28;20401;-69
2021/07/07 05:39:41;;;;;;;3.03;2.03;;;16.50;99.90;;;;;;5115696;28;20426;-69
2021/07/07 05:42:07;;;;;;;2.00;1.80;;;16.60;99.90;;;;;;5114017;28;20413;-69
2021/07/07 05:44:32;;;;;;;1.80;1.70;;;16.60;99.90;;;;;;5115163;28;20971;-70
2021/07/07 05:46:58;;;;;;;1.60;1.50;;;16.70;99.90;;;;;;5115020;28;20193;-71
2021/07/07 05:49:23;;;;;;;1.90;1.80;;;16.60;99.90;;;;;;5115278;28;20174;-69
2021/07/07 05:51:49;;;;;;;3.13;2.10;;;16.60;99.90;;;;;;5115130;28;20179;-69
2021/07/07 05:54:15;;;;;;;1.30;1.23;;;16.50;99.90;;;;;;5114462;28;20227;-70
2021/07/07 05:56:40;;;;;;;2.93;1.40;;;16.40;99.90;;;;;;5114891;28;20300;-68
2021/07/07 05:59:06;;;;;;;1.60;1.50;;;16.20;99.90;;;;;;5115355;28;20164;-68
2021/07/07 06:01:32;;;;;;;2.30;1.37;;;16.10;99.90;;;;;;5114948;28;20162;-68
2021/07/07 06:03:57;;;;;;;2.70;1.13;;;15.90;99.90;;;;;;5114958;28;20528;-69
2021/07/07 06:06:23;;;;;;;2.47;1.00;;;15.80;99.90;;;;;;5114624;28;20643;-69
2021/07/07 06:08:48;;;;;;;1.40;1.30;;;15.70;99.90;;;;;;5114868;28;20180;-70
2021/07/07 06:11:14;;;;;;;1.80;1.33;;;15.80;99.90;;;;;;5114865;28;20171;-69
2021/07/07 06:13:40;;;;;;;1.83;1.10;;;15.80;99.90;;;;;;5114516;27;20199;-69
2021/07/07 06:16:05;;;;;;;1.37;1.27;;;15.90;99.90;;;;;;5114634;28;20163;-68
2021/07/07 06:18:32;;;;;;;1.87;1.40;;;15.90;99.90;;;;;;5114658;28;20187;-69
2021/07/07 06:20:58;;;;;;;2.23;2.10;;;16.00;99.90;;;;;;5114688;28;20526;-67
2021/07/07 06:23:23;;;;;;;1.27;1.13;;;16.00;99.90;;;;;;5114550;28;20422;-71
2021/07/07 06:25:49;;;;;;;2.40;1.63;;;15.80;99.90;;;;;;5114226;28;20642;-70
2021/07/07 06:28:15;;;;;;;1.53;1.43;;;15.80;99.90;;;;;;5114432;28;20681;-69
2021/07/07 06:30:40;;;;;;;1.40;1.30;;;16.00;99.90;;;;;;5114251;28;20170;-71
2021/07/07 06:33:06;;;;;;;1.53;1.50;;;16.00;99.90;;;;;;5114264;28;20250;-71
2021/07/07 06:35:35;;;;;;;1.43;1.33;;;16.10;99.90;;;;;;5114319;28;20171;-70
2021/07/07 06:38:02;;;;;;;1.43;1.30;;;16.10;99.90;;;;;;5113974;28;20247;-68
2021/07/07 06:40:28;;;;;;;6.73;1.80;;;16.20;99.90;;;;;;5114145;28;20748;-68
2021/07/07 06:42:54;;;;;;;1.43;1.33;;;16.30;99.90;;;;;;5114130;28;20419;-68
2021/07/07 06:45:21;;;;;;;3.23;1.73;;;16.40;99.90;;;;;;5114206;28;20182;-67
2021/07/07 06:47:46;;;;;;;1.80;1.70;;;16.50;99.90;;;;;;5113970;28;20168;-69
2021/07/07 06:50:14;;;;;;;1.50;1.27;;;16.60;99.90;;;;;;5113923;28;20409;-71
2021/07/07 06:52:41;;;;;;;1.63;1.53;;;16.80;99.90;;;;;;5114073;28;20278;-70
2021/07/07 06:55:08;;;;;;;2.40;1.43;;;16.80;99.90;;;;;;5112593;28;20525;-70
2021/07/07 06:57:37;;;;;;;2.50;2.10;;;16.80;99.90;;;;;;5113879;28;20399;-69
2021/07/07 07:00:10;;;;;;;2.00;1.70;;;17.00;99.90;;;;;;5114019;28;20395;-70
2021/07/07 07:02:36;;;;;;;1.57;1.47;;;17.10;99.90;;;;;;5113844;28;20409;-70
2021/07/07 07:05:05;;;;;;;2.00;1.87;;;17.10;99.90;;;;;;5112967;28;20782;-69
2021/07/07 07:07:30;;;;;;;1.40;1.30;;;17.10;99.90;;;;;;5113609;28;20405;-68
2021/07/07 07:09:59;;;;;;;2.70;1.00;;;17.20;99.90;;;;;;5113744;28;20429;-70
2021/07/07 07:12:29;;;;;;;1.33;1.20;;;17.20;99.90;;;;;;5113924;28;20220;-70
2021/07/07 07:14:56;;;;;;;1.30;1.20;;;17.30;99.90;;;;;;5113640;28;20465;-68
2021/07/07 07:17:23;;;;;;;4.00;2.30;;;17.30;99.90;;;;;;5113510;28;20396;-67
2021/07/07 07:19:49;;;;;;;1.77;1.60;;;17.30;99.90;;;;;;5113814;28;20439;-71
2021/07/07 07:22:16;;;;;;;3.10;2.00;;;17.30;99.90;;;;;;5113647;28;20398;-67
2021/07/07 07:24:43;;;;;;;2.20;1.57;;;17.30;99.90;;;;;;5113721;28;20431;-70
2021/07/07 07:27:08;;;;;;;2.77;1.73;;;17.30;99.90;;;;;;5113558;28;20409;-67
2021/07/07 07:29:37;;;;;;;2.20;2.00;;;17.30;99.90;;;;;;5113737;28;20923;-70
2021/07/07 07:32:03;;;;;;;1.70;1.60;;;17.20;99.90;;;;;;5113707;28;20167;-68
2021/07/07 07:34:29;;;;;;;1.90;1.40;;;17.20;99.90;;;;;;5113386;28;20461;-69
2021/07/07 07:37:00;;;;;;;2.37;2.03;;;17.20;99.90;;;;;;5113503;28;20757;-68
2021/07/07 07:39:27;;;;;;;2.70;2.50;;;17.00;99.90;;;;;;5113622;28;20160;-68
2021/07/07 07:41:53;;;;;;;2.30;2.10;;;17.10;99.90;;;;;;5113707;28;20402;-68
2021/07/07 07:44:19;;;;;;;3.43;2.13;;;17.20;99.90;;;;;;5112060;28;20517;-67
2021/07/07 07:46:45;;;;;;;2.43;2.17;;;17.30;99.90;;;;;;5113173;28;20187;-69
2021/07/07 07:49:13;;;;;;;2.57;2.27;;;17.50;99.90;;;;;;5113649;28;20428;-71
2021/07/07 07:51:39;;;;;;;3.13;1.60;;;17.80;99.90;;;;;;5113454;28;20443;-71
2021/07/07 07:54:05;;;;;;;1.70;1.37;;;18.20;99.90;;;;;;5113251;28;20472;-68
2021/07/07 07:56:31;;;;;;;1.10;1.10;;;18.50;99.90;;;;;;5113178;28;20520;-68
2021/07/07 07:58:57;;;;;;;1.80;1.20;;;18.80;99.90;;;;;;5113566;28;20945;-67
2021/07/07 08:01:24;;;;;;;1.90;0.93;;;19.10;99.90;;;;;;5113474;28;20954;-67
2021/07/07 08:03:50;;;;;;;2.10;1.30;;;19.20;99.70;;;;;;5113299;28;20190;-69
2021/07/07 08:06:16;;;;;;;1.73;1.27;;;19.20;99.90;;;;;;5113417;28;20412;-69
2021/07/07 08:08:41;;;;;;;1.40;1.30;;;19.30;99.50;;;;;;5113360;28;20397;-70
2021/07/07 08:11:07;;;;;;;4.03;0.93;;;19.40;99.00;;;;;;5113382;28;20541;-69
2021/07/07 08:13:33;;;;;;;1.57;1.10;;;19.30;98.10;;;;;;5113061;28;20688;-68
2021/07/07 08:15:59;;;;;;;7.97;1.40;;;19.20;99.00;;;;;;5114553;28;20634;-70
2021/07/07 08:18:25;;;;;;;1.23;1.13;;;19.10;99.50;;;;;;5117162;28;20457;-70
2021/07/07 08:20:51;;;;;;;3.23;1.63;;;19.00;99.90;;;;;;5117061;28;20394;-70
2021/07/07 08:23:16;;;;;;;2.20;1.30;;;18.80;99.90;;;;;;5116746;27;20181;-68
2021/07/07 08:25:42;;;;;;;1.33;1.23;;;18.70;99.90;;;;;;5116595;27;20462;-67
2021/07/07 08:28:08;;;;;;;1.63;1.20;;;18.60;99.90;;;;;;5116715;28;20214;-68
2021/07/07 08:30:33;;;;;;;2.50;1.70;;;18.40;99.90;;;;;;5116662;28;20170;-68
2021/07/07 08:32:59;;;;;;;1.53;1.43;;;18.10;99.90;;;;;;5116770;28;20188;-68
2021/07/07 08:35:25;;;;;;;3.60;1.60;;;17.80;99.90;;;;;;5116554;28;20176;-71
2021/07/07 08:37:50;;;;;;;2.63;1.40;;;17.70;99.90;;;;;;5116459;27;20237;-70
2021/07/07 08:40:16;;;;;;;1.90;1.70;;;17.60;99.90;;;;;;5116740;28;20160;-70
2021/07/07 08:42:44;;;;;;;2.50;1.43;;;17.60;99.90;;;;;;5116536;28;20189;-68
2021/07/07 08:45:13;;;;;;;1.50;1.20;;;17.80;99.90;;;;;;5116302;28;20420;-70
2021/07/07 08:47:41;;;;;;;2.60;1.67;;;17.90;99.90;;;;;;5116321;28;20905;-69
2021/07/07 08:50:09;;;;;;;1.57;1.47;;;18.10;99.90;;;;;;5116569;28;20399;-67
2021/07/07 08:52:38;;;;;;;1.73;1.20;;;18.40;99.90;;;;;;5116297;28;20922;-68
2021/07/07 08:55:09;;;;;;;2.00;1.90;;;18.60;99.90;;;;;;5116160;28;20996;-71
2021/07/07 08:57:42;;;;;;;1.90;1.10;;;18.90;99.90;;;;;;5116073;28;20395;-70
2021/07/07 09:00:14;;;;;;;5.90;1.60;;;19.00;99.90;;;;;;5116431;28;20736;-70
2021/07/07 09:02:55;;;;;;;1.40;1.30;;;19.00;99.90;;;;;;5116270;28;20923;-68
2021/07/07 09:05:21;;;;;;;3.33;1.63;;;19.10;99.90;;;;;;5116041;28;20416;-70
2021/07/07 09:07:47;;;;;;;1.30;1.30;;;19.30;99.90;;;;;;5116040;28;20495;-70
2021/07/07 09:10:30;;;;;;;1.30;1.20;;;19.30;99.90;;;;;;5115946;28;20495;-71
2021/07/07 09:13:07;;;;;;;5.90;1.40;;;19.70;99.90;;;;;;5115935;28;20221;-70
2021/07/07 09:15:33;;;;;;;1.27;1.17;;;20.90;98.60;;;;;;5116067;28;20405;-71
2021/07/07 09:17:58;;;;;;;0.93;0.90;;;22.20;96.60;;;;;;5115846;27;20398;-68
2021/07/07 09:20:41;;;;;;;1.93;1.23;;;23.10;92.80;;;;;;5115916;28;20219;-69
2021/07/07 09:23:22;;;;;;;4.20;1.60;;;23.70;93.40;;;;;;5116098;28;20191;-71
2021/07/07 09:26:01;;;;;;;1.10;1.00;;;23.40;93.30;;;;;;5115663;27;20385;-71
2021/07/07 09:28:35;;;;;;;1.27;1.17;;;22.80;90.80;;;;;;5115035;28;20425;-71
2021/07/07 09:31:05;;;;;;;1.13;1.03;;;22.30;93.60;;;;;;5115577;28;20386;-69
2021/07/07 09:33:42;;;;;;;2.43;1.27;;;22.00;94.70;;;;;;5115352;28;20495;-69
2021/07/07 09:36:25;;;;;;;2.20;1.07;;;21.50;95.80;;;;;;5115371;28;20900;-69
2021/07/07 09:38:53;;;;;;;1.60;1.23;;;21.00;96.90;;;;;;5115638;28;20399;-71
2021/07/07 09:41:21;;;;;;;3.17;1.60;;;20.70;98.40;;;;;;5115372;28;20797;-70
2021/07/07 09:43:53;;;;;;;1.00;1.00;;;20.70;98.60;;;;;;5115255;28;20458;-69
2021/07/07 09:46:20;;;;;;;1.30;1.20;;;20.50;98.40;;;;;;5113688;28;20469;-70
2021/07/07 09:48:48;;;;;;;1.40;1.20;;;20.30;99.10;;;;;;5115462;28;20838;-69
2021/07/07 09:51:14;;;;;;;2.40;1.60;;;20.30;99.70;;;;;;5115404;28;20418;-71
2021/07/07 09:53:40;;;;;;;1.27;1.17;;;20.10;99.60;;;;;;5114959;27;20446;-68
2021/07/07 09:56:06;;;;;;;2.50;1.30;;;20.00;99.70;;;;;;5114895;28;20399;-70
2021/07/07 09:58:32;;;;;;;2.67;1.40;;;20.10;99.90;;;;;;5115142;28;20161;-71
2021/07/07 10:00:58;;;;;;;3.17;1.57;;;20.00;99.40;;;;;;5115262;28;20165;-70
2021/07/07 10:03:24;;;;;;;3.07;1.37;;;20.10;99.90;;;;;;5115035;27;20418;-70
2021/07/07 10:05:51;;;;;;;1.17;1.07;;;20.00;99.90;;;;;;5114766;27;20424;-71
2021/07/07 10:08:19;;;;;;;1.77;1.30;;;19.90;99.00;;;;;;5114972;28;20171;-71
2021/07/07 10:10:45;;;;;;;1.10;1.03;;;19.90;99.00;;;;;;5114775;27;20405;-69
2021/07/07 10:13:13;;;;;;;3.30;1.37;;;19.60;98.40;;;;;;5114614;28;20440;-70
2021/07/07 10:15:39;;;;;;;1.53;1.30;;;19.30;97.00;;;;;;5114676;28;20776;-67
2021/07/07 10:18:06;;;;;;;1.57;1.47;;;19.20;96.70;;;;;;5114666;28;20405;-69
2021/07/07 10:20:33;;;;;;;1.47;1.37;;;19.10;98.40;;;;;;5114780;28;20761;-68
2021/07/07 10:23:01;;;;;;;2.13;1.33;;;19.10;99.90;;;;;;5114694;28;20422;-68
2021/07/07 10:25:29;;;;;;;2.93;1.30;;;19.00;99.90;;;;;;5114909;28;20784;-67
2021/07/07 10:27:58;;;;;;;9.60;1.63;;;19.10;99.90;;;;;;5114217;28;20437;-70
2021/07/07 10:30:54;;;;;;;1.23;1.13;;;19.00;99.90;;;;;;5114510;28;20442;-68
2021/07/07 10:33:21;;;;;;;1.30;1.20;;;19.10;99.90;;;;;;5114426;28;20932;-71
2021/07/07 10:35:47;;;;;;;1.40;1.30;;;19.10;99.90;;;;;;5114158;28;20411;-69
2021/07/07 10:38:13;;;;;;;3.30;1.47;;;19.10;99.90;;;;;;5114262;28;20410;-70
2021/07/07 10:40:44;;;;;;;1.73;1.47;;;19.30;99.90;;;;;;5114352;28;20408;-68
2021/07/07 10:43:23;;;;;;;3.23;1.60;;;19.50;99.90;;;;;;5114389;27;20452;-70
2021/07/07 10:45:49;;;;;;;1.07;0.97;;;19.70;99.90;;;;;;5114006;28;20436;-71
2021/07/07 10:48:18;;;;;;;1.23;1.00;;;19.40;98.50;;;;;;5114181;28;20876;-68
2021/07/07 10:50:44;;;;;;;1.67;1.30;;;19.40;99.90;;;;;;5114304;28;20171;-70
2021/07/07 10:53:30;;;;;;;1.43;1.00;;;19.50;99.90;;;;;;5114009;28;20474;-70
2021/07/07 10:55:57;;;;;;;0.90;0.80;;;19.50;99.90;;;;;;5113987;28;20438;-69
2021/07/07 10:58:31;;;;;;;1.40;1.30;;;19.50;98.40;;;;;;5114145;28;20408;-70
2021/07/07 11:00:57;;;;;;;1.47;1.00;;;19.50;99.00;;;;;;5114246;28;20812;-70
2021/07/07 11:03:37;;;;;;;0.80;0.80;;;19.50;97.90;;;;;;5114239;28;20437;-69
2021/07/07 11:06:23;;;;;;;2.60;0.83;;;19.80;98.80;;;;;;5113783;28;20389;-70
2021/07/07 11:08:50;;;;;;;1.20;1.10;;;20.30;98.30;;;;;;5114087;28;20381;-70
2021/07/07 11:11:23;;;;;;;0.93;0.93;;;20.80;98.80;;;;;;5113844;28;20398;-68
2021/07/07 11:13:50;;;;;;;0.60;0.60;;;20.90;97.70;;;;;;5113666;28;20446;-68
2021/07/07 11:16:21;;;;;;;1.23;0.90;;;20.90;96.10;;;;;;5113710;28;20422;-69
2021/07/07 11:18:48;;;;;;;1.00;0.90;;;21.20;96.90;;;;;;5114012;28;20401;-69
2021/07/07 11:21:15;;;;;;;0.80;0.80;;;21.50;95.80;;;;;;5113840;28;20511;-68
2021/07/07 11:23:41;;;;;;;0.80;0.80;;;21.60;95.10;;;;;;5113680;28;20434;-68
2021/07/07 11:26:11;;;;;;;2.40;0.90;;;21.50;94.50;;;;;;5113513;28;20901;-71
2021/07/07 11:28:37;;;;;;;1.20;1.10;;;21.90;94.10;;;;;;5113750;28;20172;-71
2021/07/07 11:31:03;;;;;;;1.27;1.17;;;22.10;93.10;;;;;;5113757;28;20459;-70
2021/07/07 11:33:30;;;;;;;0.80;0.60;;;22.20;93.40;;;;;;5113556;28;20480;-70
2021/07/07 11:35:56;;;;;;;1.27;0.93;;;21.90;93.00;;;;;;5113585;28;20168;-70
2021/07/07 11:38:24;;;;;;;0.63;0.60;;;21.80;95.30;;;;;;5113510;28;20401;-67
2021/07/07 11:40:53;;;;;;;0.73;0.73;;;21.40;93.80;;;;;;5113607;28;20454;-69
2021/07/07 11:43:25;;;;;;;1.23;1.20;;;21.40;96.20;;;;;;5113644;28;20440;-68
2021/07/07 11:46:01;;;;;;;1.00;0.90;;;21.40;95.90;;;;;;5113244;28;20444;-71
2021/07/07 11:48:42;;;;;;;0.77;0.77;;;21.70;94.30;;;;;;5113684;28;20490;-69
2021/07/07 11:51:18;;;;;;;0.70;0.70;;;22.50;95.30;;;;;;5115187;28;20888;-68
2021/07/07 11:53:47;;;;;;;3.67;1.00;;;23.00;92.20;;;;;;5117449;27;21023;-71
2021/07/07 11:56:15;;;;;;;0.63;0.63;;;23.10;93.70;;;;;;5117345;28;20384;-68
2021/07/07 11:58:45;;;;;;;0.70;0.70;;;23.20;92.20;;;;;;5117485;28;20893;-71
2021/07/07 12:01:13;;;;;;;2.73;0.60;;;23.30;91.50;;;;;;5117783;28;20460;-70
2021/07/07 12:03:39;;;;;;;0.77;0.77;;;23.00;91.30;;;;;;5117192;28;20433;-69
2021/07/07 12:06:12;;;;;;;0.60;0.60;;;22.90;91.30;;;;;;5117064;28;20897;-69
2021/07/07 12:08:40;;;;;;;0.90;0.70;;;22.80;92.50;;;;;;5117145;28;20410;-69
2021/07/07 12:11:18;;;;;;;0.80;0.80;;;23.10;93.10;;;;;;5117352;28;20373;-70
2021/07/07 12:13:45;;;;;;;0.70;0.70;;;23.10;91.40;;;;;;5117033;28;20449;-68
2021/07/07 12:16:24;;;;;;;2.73;0.60;;;22.70;91.10;;;;;;5116830;28;20418;-69
2021/07/07 12:19:11;;;;;;;0.40;0.40;;;22.50;90.70;;;;;;5117175;28;20802;-68
2021/07/07 12:21:43;;;;;;;1.50;0.97;;;22.10;92.20;;;;;;5117124;28;20424;-67
2021/07/07 12:24:13;;;;;;;0.70;0.70;;;22.00;91.40;;;;;;5116762;27;20428;-71
2021/07/07 12:26:41;;;;;;;0.63;0.60;;;21.60;92.90;;;;;;5116694;28;20478;-71
2021/07/07 12:29:11;;;;;;;2.87;0.80;;;21.70;92.40;;;;;;5116880;28;20496;-70
2021/07/07 12:31:39;;;;;;;1.13;0.60;;;22.10;92.50;;;;;;5117037;28;20413;-69
2021/07/07 12:34:07;;;;;;;0.80;0.50;;;22.30;92.00;;;;;;5116546;28;20456;-68
2021/07/07 12:36:35;;;;;;;1.00;1.00;;;22.20;91.20;;;;;;5116640;28;20401;-68
2021/07/07 12:39:12;;;;;;;2.00;0.70;;;22.40;91.60;;;;;;5116852;28;20456;-71
2021/07/07 12:41:43;;;;;;;4.93;1.57;;;22.30;91.60;;;;;;5116785;28;20400;-68
2021/07/07 12:47:12;;;;;;;1.30;1.20;;;21.70;92.80;;;;;;5116253;28;20463;-69
2021/07/07 12:49:46;;;;;;;1.80;1.40;;;21.60;91.30;;;;;;5115440;28;20419;-71
2021/07/07 12:52:28;;;;;;;2.70;1.57;;;21.30;91.80;;;;;;5116482;28;20410;-69